AXM6447 WMKK-WMKC
Flight info
| Callsign | AXM6447 |
|---|---|
| Flight time | 0h 45m |
| Altitude | 25000 |
| Route | PIBOS1D PIBOS R208 MATSU Y345 GUGIT GUGIT1E |
| Aircraft | A320/M-SDE3FGHIRWY/LB1 |
Departure
| Time | 2026-04-22 13:42 |
|---|---|
| Airport | Kuala Lumpur International Airport (WMKK) |
Arrival
| Time | 2026-04-22 14:27 |
|---|---|
| Airport | Sultan Ismail Petra Airport (WMKC) |
| Time | Latitude | Longitude | Altitude | Speed | Heading |
|---|---|---|---|---|---|
| 2026-04-22 13:07 | 2.74354 | 101.68945 | 75 ft | 0 kts | 326° |
| 2026-04-22 13:21 | 2.74341 | 101.68952 | 75 ft | 2 kts | 343° |
| 2026-04-22 13:21 | 2.74326 | 101.68955 | 75 ft | 2 kts | 357° |
| 2026-04-22 13:21 | 2.74311 | 101.68954 | 75 ft | 2 kts | 12° |
| 2026-04-22 13:21 | 2.74297 | 101.68950 | 75 ft | 2 kts | 27° |
| 2026-04-22 13:22 | 2.74285 | 101.68942 | 75 ft | 2 kts | 42° |
| 2026-04-22 13:22 | 2.74275 | 101.68931 | 75 ft | 1 kts | 57° |
| 2026-04-22 13:22 | 2.74274 | 101.68928 | 75 ft | 0 kts | 58° |
| 2026-04-22 13:26 | 2.74276 | 101.68932 | 75 ft | 1 kts | 58° |
| 2026-04-22 13:26 | 2.74285 | 101.68951 | 75 ft | 4 kts | 71° |
| 2026-04-22 13:27 | 2.74292 | 101.68993 | 75 ft | 7 kts | 85° |
| 2026-04-22 13:27 | 2.74311 | 101.69048 | 75 ft | 9 kts | 55° |
| 2026-04-22 13:27 | 2.74356 | 101.69113 | 75 ft | 12 kts | 55° |
| 2026-04-22 13:27 | 2.74408 | 101.69190 | 75 ft | 13 kts | 56° |
| 2026-04-22 13:28 | 2.74464 | 101.69273 | 75 ft | 15 kts | 56° |
| 2026-04-22 13:28 | 2.74515 | 101.69349 | 75 ft | 5 kts | 56° |
| 2026-04-22 13:28 | 2.74541 | 101.69389 | 75 ft | 7 kts | 54° |
| 2026-04-22 13:28 | 2.74547 | 101.69437 | 75 ft | 8 kts | 129° |
| 2026-04-22 13:29 | 2.74494 | 101.69479 | 75 ft | 10 kts | 146° |
| 2026-04-22 13:29 | 2.74429 | 101.69522 | 75 ft | 12 kts | 146° |
| 2026-04-22 13:29 | 2.74355 | 101.69572 | 75 ft | 13 kts | 146° |
| 2026-04-22 13:29 | 2.74336 | 101.69585 | 75 ft | 0 kts | 145° |
| 2026-04-22 13:31 | 2.74332 | 101.69588 | 75 ft | 1 kts | 145° |
| 2026-04-22 13:31 | 2.74312 | 101.69601 | 75 ft | 5 kts | 145° |
| 2026-04-22 13:31 | 2.74279 | 101.69633 | 75 ft | 8 kts | 107° |
| 2026-04-22 13:32 | 2.74306 | 101.69691 | 75 ft | 11 kts | 56° |
| 2026-04-22 13:32 | 2.74355 | 101.69764 | 75 ft | 13 kts | 56° |
| 2026-04-22 13:32 | 2.74414 | 101.69849 | 75 ft | 16 kts | 56° |
| 2026-04-22 13:32 | 2.74482 | 101.69949 | 75 ft | 18 kts | 56° |
| 2026-04-22 13:33 | 2.74532 | 101.70024 | 75 ft | 13 kts | 56° |
| 2026-04-22 13:33 | 2.74592 | 101.70113 | 75 ft | 16 kts | 56° |
| 2026-04-22 13:33 | 2.74660 | 101.70213 | 75 ft | 18 kts | 56° |
| 2026-04-22 13:33 | 2.74734 | 101.70322 | 75 ft | 20 kts | 56° |
| 2026-04-22 13:34 | 2.74816 | 101.70442 | 75 ft | 21 kts | 56° |
| 2026-04-22 13:34 | 2.74902 | 101.70568 | 75 ft | 22 kts | 56° |
| 2026-04-22 13:34 | 2.74991 | 101.70699 | 75 ft | 22 kts | 56° |
| 2026-04-22 13:34 | 2.75079 | 101.70829 | 75 ft | 22 kts | 56° |
| 2026-04-22 13:35 | 2.75165 | 101.70956 | 75 ft | 21 kts | 56° |
| 2026-04-22 13:35 | 2.75250 | 101.71081 | 75 ft | 21 kts | 56° |
| 2026-04-22 13:35 | 2.75334 | 101.71207 | 75 ft | 21 kts | 56° |
| 2026-04-22 13:35 | 2.75419 | 101.71330 | 75 ft | 21 kts | 56° |
| 2026-04-22 13:36 | 2.75482 | 101.71423 | 75 ft | 7 kts | 56° |
| 2026-04-22 13:36 | 2.75515 | 101.71471 | 75 ft | 9 kts | 56° |
| 2026-04-22 13:36 | 2.75514 | 101.71517 | 75 ft | 9 kts | 145° |
| 2026-04-22 13:36 | 2.75459 | 101.71558 | 75 ft | 10 kts | 143° |
| 2026-04-22 13:37 | 2.75400 | 101.71598 | 75 ft | 11 kts | 146° |
| 2026-04-22 13:37 | 2.75328 | 101.71645 | 75 ft | 12 kts | 146° |
| 2026-04-22 13:37 | 2.75252 | 101.71697 | 75 ft | 13 kts | 145° |
| 2026-04-22 13:37 | 2.75171 | 101.71751 | 75 ft | 14 kts | 146° |
| 2026-04-22 13:38 | 2.75085 | 101.71809 | 75 ft | 15 kts | 146° |
| 2026-04-22 13:38 | 2.74902 | 101.71931 | 75 ft | 16 kts | 146° |
| 2026-04-22 13:38 | 2.74809 | 101.71993 | 75 ft | 12 kts | 146° |
| 2026-04-22 13:39 | 2.74753 | 101.72058 | 75 ft | 13 kts | 86° |
| 2026-04-22 13:39 | 2.74773 | 101.72096 | 75 ft | 0 kts | 55° |
| 2026-04-22 13:39 | 2.74774 | 101.72097 | 75 ft | 0 kts | 55° |
| 2026-04-22 13:40 | 2.74781 | 101.72107 | 75 ft | 2 kts | 55° |
| 2026-04-22 13:40 | 2.74796 | 101.72129 | 75 ft | 5 kts | 55° |
| 2026-04-22 13:40 | 2.74823 | 101.72168 | 75 ft | 8 kts | 56° |
| 2026-04-22 13:40 | 2.74877 | 101.72182 | 75 ft | 9 kts | 330° |
| 2026-04-22 13:41 | 2.74991 | 101.72108 | 75 ft | 47 kts | 327° |
| 2026-04-22 13:41 | 2.75481 | 101.71778 | 75 ft | 118 kts | 325° |
| 2026-04-22 13:41 | 2.76321 | 101.71208 | 143 ft | 166 kts | 326° |
| 2026-04-22 13:41 | 2.77336 | 101.70554 | 613 ft | 179 kts | 328° |
| 2026-04-22 13:42 | 2.78399 | 101.69877 | 1225 ft | 187 kts | 328° |
| 2026-04-22 13:42 | 2.79484 | 101.69170 | 2052 ft | 184 kts | 328° |
| 2026-04-22 13:42 | 2.80662 | 101.68676 | 2535 ft | 191 kts | 359° |
| 2026-04-22 13:42 | 2.81949 | 101.69080 | 2868 ft | 205 kts | 33° |
| 2026-04-22 13:43 | 2.83153 | 101.69952 | 3217 ft | 223 kts | 39° |
| 2026-04-22 13:43 | 2.84455 | 101.70956 | 3533 ft | 245 kts | 38° |
| 2026-04-22 13:43 | 2.85864 | 101.72003 | 3964 ft | 262 kts | 37° |
| 2026-04-22 13:43 | 2.87375 | 101.73082 | 4651 ft | 269 kts | 36° |
| 2026-04-22 13:44 | 2.88922 | 101.74161 | 5459 ft | 271 kts | 35° |
| 2026-04-22 13:44 | 2.90473 | 101.75229 | 6249 ft | 273 kts | 34° |
| 2026-04-22 13:44 | 2.92037 | 101.76297 | 7029 ft | 275 kts | 34° |
| 2026-04-22 13:44 | 2.93623 | 101.77375 | 7764 ft | 279 kts | 33° |
| 2026-04-22 13:45 | 2.95253 | 101.78479 | 8488 ft | 284 kts | 33° |
| 2026-04-22 13:45 | 2.96898 | 101.79591 | 9202 ft | 288 kts | 33° |
| 2026-04-22 13:45 | 2.98565 | 101.80717 | 9925 ft | 292 kts | 33° |
| 2026-04-22 13:45 | 3.00249 | 101.81853 | 10562 ft | 298 kts | 33° |
| 2026-04-22 13:46 | 3.02024 | 101.83052 | 10910 ft | 315 kts | 33° |
| 2026-04-22 13:46 | 3.03899 | 101.84319 | 11217 ft | 332 kts | 33° |
| 2026-04-22 13:46 | 3.05848 | 101.85635 | 11693 ft | 342 kts | 33° |
| 2026-04-22 13:46 | 3.07824 | 101.86971 | 12328 ft | 345 kts | 33° |
| 2026-04-22 13:47 | 3.09839 | 101.88332 | 12964 ft | 348 kts | 33° |
| 2026-04-22 13:47 | 3.11869 | 101.89704 | 13566 ft | 351 kts | 33° |
| 2026-04-22 13:47 | 3.13915 | 101.91085 | 14146 ft | 355 kts | 33° |
| 2026-04-22 13:47 | 3.15999 | 101.92493 | 14715 ft | 359 kts | 33° |
| 2026-04-22 13:48 | 3.18059 | 101.93884 | 15263 ft | 362 kts | 33° |
| 2026-04-22 13:48 | 3.20159 | 101.95304 | 15809 ft | 365 kts | 33° |
| 2026-04-22 13:48 | 3.22291 | 101.96745 | 16353 ft | 368 kts | 33° |
| 2026-04-22 13:48 | 3.24391 | 101.98165 | 16871 ft | 370 kts | 33° |
| 2026-04-22 13:49 | 3.26557 | 101.99629 | 17376 ft | 373 kts | 34° |
| 2026-04-22 13:49 | 3.28744 | 102.01107 | 17859 ft | 376 kts | 34° |
| 2026-04-22 13:49 | 3.30900 | 102.02564 | 18327 ft | 378 kts | 34° |
| 2026-04-22 13:49 | 3.33108 | 102.04057 | 18801 ft | 381 kts | 34° |
| 2026-04-22 13:50 | 3.35321 | 102.05514 | 19252 ft | 383 kts | 32° |
| 2026-04-22 13:50 | 3.37656 | 102.06900 | 19667 ft | 387 kts | 31° |
| 2026-04-22 13:50 | 3.39987 | 102.08249 | 20086 ft | 389 kts | 31° |
| 2026-04-22 13:50 | 3.42417 | 102.09539 | 20506 ft | 392 kts | 25° |
| 2026-04-22 13:51 | 3.44948 | 102.10550 | 20898 ft | 396 kts | 19° |
| 2026-04-22 13:51 | 3.47638 | 102.11292 | 21293 ft | 399 kts | 14° |
| 2026-04-22 13:51 | 3.50378 | 102.11901 | 21712 ft | 400 kts | 13° |
| 2026-04-22 13:51 | 3.53127 | 102.12487 | 22214 ft | 399 kts | 13° |
| 2026-04-22 13:52 | 3.55868 | 102.13072 | 22740 ft | 398 kts | 13° |
| 2026-04-22 13:52 | 3.58535 | 102.13645 | 23228 ft | 397 kts | 13° |
| 2026-04-22 13:52 | 3.61275 | 102.14237 | 23674 ft | 398 kts | 13° |
| 2026-04-22 13:52 | 3.63978 | 102.14823 | 24084 ft | 399 kts | 13° |
| 2026-04-22 13:53 | 3.66716 | 102.15415 | 24493 ft | 401 kts | 13° |
| 2026-04-22 13:53 | 3.69462 | 102.16012 | 24811 ft | 403 kts | 13° |
| 2026-04-22 13:53 | 3.72201 | 102.16608 | 24856 ft | 404 kts | 13° |
| 2026-04-22 13:53 | 3.74981 | 102.17212 | 24863 ft | 404 kts | 13° |
| 2026-04-22 13:54 | 3.77775 | 102.17820 | 24863 ft | 404 kts | 13° |
| 2026-04-22 13:54 | 3.80529 | 102.18418 | 24864 ft | 404 kts | 13° |
| 2026-04-22 13:54 | 3.83301 | 102.19022 | 24866 ft | 404 kts | 13° |
| 2026-04-22 13:54 | 3.86069 | 102.19624 | 24866 ft | 404 kts | 13° |
| 2026-04-22 13:55 | 3.88819 | 102.20222 | 24867 ft | 404 kts | 13° |
| 2026-04-22 13:55 | 3.91568 | 102.20821 | 24865 ft | 404 kts | 13° |
| 2026-04-22 13:55 | 3.94318 | 102.21419 | 24862 ft | 404 kts | 13° |
| 2026-04-22 13:55 | 3.97105 | 102.22025 | 24864 ft | 404 kts | 13° |
| 2026-04-22 13:56 | 3.99866 | 102.22626 | 24866 ft | 404 kts | 13° |
| 2026-04-22 13:56 | 4.02638 | 102.23230 | 24865 ft | 404 kts | 13° |
| 2026-04-22 13:56 | 4.05418 | 102.23834 | 24866 ft | 404 kts | 13° |
| 2026-04-22 13:56 | 4.08151 | 102.24429 | 24868 ft | 404 kts | 13° |
| 2026-04-22 13:57 | 4.10896 | 102.25026 | 24871 ft | 403 kts | 13° |
| 2026-04-22 13:57 | 4.13665 | 102.25630 | 24873 ft | 404 kts | 13° |
| 2026-04-22 13:57 | 4.16420 | 102.26230 | 24876 ft | 403 kts | 13° |
| 2026-04-22 13:57 | 4.19169 | 102.26829 | 24878 ft | 403 kts | 13° |
| 2026-04-22 13:58 | 4.21945 | 102.27433 | 24880 ft | 403 kts | 13° |
| 2026-04-22 13:58 | 4.24700 | 102.28033 | 24880 ft | 403 kts | 13° |
| 2026-04-22 13:58 | 4.27440 | 102.28629 | 24879 ft | 402 kts | 13° |
| 2026-04-22 13:58 | 4.30233 | 102.29238 | 24880 ft | 403 kts | 13° |
| 2026-04-22 13:59 | 4.32977 | 102.29835 | 24884 ft | 403 kts | 14° |
| 2026-04-22 13:59 | 4.35726 | 102.30434 | 24889 ft | 403 kts | 14° |
| 2026-04-22 13:59 | 4.38476 | 102.31033 | 24898 ft | 403 kts | 14° |
| 2026-04-22 13:59 | 4.41225 | 102.31632 | 24903 ft | 403 kts | 14° |
| 2026-04-22 14:00 | 4.43973 | 102.32230 | 24907 ft | 402 kts | 14° |
| 2026-04-22 14:00 | 4.46726 | 102.32832 | 24914 ft | 402 kts | 14° |
| 2026-04-22 14:00 | 4.49485 | 102.33433 | 24921 ft | 402 kts | 14° |
| 2026-04-22 14:00 | 4.52241 | 102.34034 | 24923 ft | 402 kts | 14° |
| 2026-04-22 14:01 | 4.54996 | 102.34634 | 24922 ft | 402 kts | 14° |
| 2026-04-22 14:01 | 4.57751 | 102.35233 | 24916 ft | 402 kts | 14° |
| 2026-04-22 14:01 | 4.60497 | 102.35833 | 24911 ft | 402 kts | 14° |
| 2026-04-22 14:01 | 4.63243 | 102.36432 | 24905 ft | 402 kts | 14° |
| 2026-04-22 14:02 | 4.65984 | 102.37029 | 24899 ft | 402 kts | 14° |
| 2026-04-22 14:02 | 4.68720 | 102.37624 | 24894 ft | 401 kts | 14° |
| 2026-04-22 14:02 | 4.71434 | 102.38216 | 24890 ft | 401 kts | 14° |
| 2026-04-22 14:02 | 4.74187 | 102.38817 | 24886 ft | 401 kts | 14° |
| 2026-04-22 14:03 | 4.76936 | 102.39417 | 24883 ft | 401 kts | 14° |
| 2026-04-22 14:03 | 4.79670 | 102.40013 | 24883 ft | 400 kts | 14° |
| 2026-04-22 14:03 | 4.82385 | 102.40606 | 24882 ft | 401 kts | 14° |
| 2026-04-22 14:03 | 4.85114 | 102.41202 | 24880 ft | 401 kts | 14° |
| 2026-04-22 14:04 | 4.87863 | 102.41801 | 24882 ft | 401 kts | 14° |
| 2026-04-22 14:04 | 4.90596 | 102.42396 | 24884 ft | 401 kts | 14° |
| 2026-04-22 14:04 | 4.93356 | 102.42999 | 24887 ft | 401 kts | 14° |
| 2026-04-22 14:04 | 4.96078 | 102.43593 | 24887 ft | 401 kts | 14° |
| 2026-04-22 14:05 | 4.98853 | 102.44198 | 24888 ft | 400 kts | 14° |
| 2026-04-22 14:05 | 5.01572 | 102.44791 | 24893 ft | 401 kts | 14° |
| 2026-04-22 14:05 | 5.06953 | 102.45963 | 24647 ft | 384 kts | 14° |
| 2026-04-22 14:06 | 5.09539 | 102.46528 | 24442 ft | 372 kts | 14° |
| 2026-04-22 14:06 | 5.12067 | 102.47079 | 24244 ft | 361 kts | 14° |
| 2026-04-22 14:06 | 5.14499 | 102.47610 | 24054 ft | 350 kts | 14° |
| 2026-04-22 14:06 | 5.16854 | 102.48125 | 23870 ft | 340 kts | 14° |
| 2026-04-22 14:07 | 5.19139 | 102.48624 | 23647 ft | 326 kts | 14° |
| 2026-04-22 14:07 | 5.21353 | 102.49106 | 23108 ft | 322 kts | 14° |
| 2026-04-22 14:07 | 5.23546 | 102.49589 | 22632 ft | 321 kts | 14° |
| 2026-04-22 14:07 | 5.25707 | 102.50061 | 22457 ft | 311 kts | 14° |
| 2026-04-22 14:08 | 5.27812 | 102.50520 | 22270 ft | 302 kts | 14° |
| 2026-04-22 14:08 | 5.29838 | 102.50963 | 22000 ft | 298 kts | 14° |
| 2026-04-22 14:08 | 5.31874 | 102.51408 | 21677 ft | 296 kts | 14° |
| 2026-04-22 14:08 | 5.33888 | 102.51848 | 21356 ft | 294 kts | 14° |
| 2026-04-22 14:09 | 5.35896 | 102.52286 | 21041 ft | 292 kts | 14° |
| 2026-04-22 14:09 | 5.37877 | 102.52719 | 20735 ft | 289 kts | 14° |
| 2026-04-22 14:09 | 5.39872 | 102.53155 | 20424 ft | 287 kts | 14° |
| 2026-04-22 14:09 | 5.41838 | 102.53586 | 20113 ft | 285 kts | 13° |
| 2026-04-22 14:10 | 5.43748 | 102.54002 | 19806 ft | 283 kts | 13° |
| 2026-04-22 14:10 | 5.45682 | 102.54425 | 19497 ft | 282 kts | 13° |
| 2026-04-22 14:10 | 5.47614 | 102.54848 | 19194 ft | 280 kts | 13° |
| 2026-04-22 14:10 | 5.49505 | 102.55260 | 18902 ft | 277 kts | 13° |
| 2026-04-22 14:11 | 5.51401 | 102.55673 | 18594 ft | 274 kts | 11° |
| 2026-04-22 14:11 | 5.53293 | 102.55797 | 18008 ft | 280 kts | 355° |
| 2026-04-22 14:11 | 5.55227 | 102.55324 | 17156 ft | 292 kts | 337° |
| 2026-04-22 14:11 | 5.56985 | 102.54266 | 16407 ft | 296 kts | 324° |
| 2026-04-22 14:12 | 5.58624 | 102.52995 | 15810 ft | 293 kts | 323° |
| 2026-04-22 14:12 | 5.60218 | 102.51735 | 15233 ft | 290 kts | 322° |
| 2026-04-22 14:12 | 5.61810 | 102.50478 | 14658 ft | 287 kts | 323° |
| 2026-04-22 14:12 | 5.63372 | 102.49254 | 14097 ft | 284 kts | 323° |
| 2026-04-22 14:13 | 5.64908 | 102.48055 | 13540 ft | 280 kts | 323° |
| 2026-04-22 14:13 | 5.66451 | 102.46851 | 12980 ft | 277 kts | 323° |
| 2026-04-22 14:13 | 5.67971 | 102.45667 | 12428 ft | 274 kts | 323° |
| 2026-04-22 14:13 | 5.69477 | 102.44495 | 11876 ft | 271 kts | 323° |
| 2026-04-22 14:14 | 5.70947 | 102.43352 | 11334 ft | 267 kts | 323° |
| 2026-04-22 14:14 | 5.72417 | 102.42209 | 10780 ft | 264 kts | 323° |
| 2026-04-22 14:14 | 5.73855 | 102.41091 | 10243 ft | 261 kts | 323° |
| 2026-04-22 14:14 | 5.75289 | 102.39977 | 9700 ft | 258 kts | 323° |
| 2026-04-22 14:15 | 5.76690 | 102.38889 | 9157 ft | 255 kts | 323° |
| 2026-04-22 14:15 | 5.78100 | 102.37794 | 8610 ft | 253 kts | 323° |
| 2026-04-22 14:15 | 5.79471 | 102.36729 | 8086 ft | 250 kts | 323° |
| 2026-04-22 14:15 | 5.80850 | 102.35657 | 7550 ft | 248 kts | 323° |
| 2026-04-22 14:16 | 5.82212 | 102.34598 | 7014 ft | 246 kts | 323° |
| 2026-04-22 14:16 | 5.83553 | 102.33554 | 6498 ft | 244 kts | 322° |
| 2026-04-22 14:16 | 5.84896 | 102.32510 | 5969 ft | 241 kts | 322° |
| 2026-04-22 14:16 | 5.86228 | 102.31471 | 5440 ft | 240 kts | 323° |
| 2026-04-22 14:17 | 5.87546 | 102.30444 | 4940 ft | 239 kts | 323° |
| 2026-04-22 14:17 | 5.88838 | 102.29439 | 4737 ft | 231 kts | 323° |
| 2026-04-22 14:17 | 5.90095 | 102.28462 | 4572 ft | 223 kts | 323° |
| 2026-04-22 14:17 | 5.91307 | 102.27521 | 4417 ft | 216 kts | 323° |
| 2026-04-22 14:18 | 5.92483 | 102.26603 | 4270 ft | 208 kts | 323° |
| 2026-04-22 14:18 | 5.93612 | 102.25722 | 4108 ft | 202 kts | 323° |
| 2026-04-22 14:18 | 5.94730 | 102.24849 | 3871 ft | 201 kts | 324° |
| 2026-04-22 14:18 | 5.95835 | 102.23987 | 3611 ft | 201 kts | 324° |
| 2026-04-22 14:19 | 5.96950 | 102.23116 | 3355 ft | 200 kts | 324° |
| 2026-04-22 14:19 | 5.98048 | 102.22260 | 3104 ft | 199 kts | 324° |
| 2026-04-22 14:19 | 5.99142 | 102.21407 | 2851 ft | 199 kts | 324° |
| 2026-04-22 14:19 | 6.00244 | 102.20547 | 2595 ft | 198 kts | 324° |
| 2026-04-22 14:20 | 6.02436 | 102.18845 | 2099 ft | 198 kts | 324° |
| 2026-04-22 14:20 | 6.03522 | 102.18002 | 2047 ft | 199 kts | 325° |
| 2026-04-22 14:20 | 6.04632 | 102.17140 | 2048 ft | 199 kts | 324° |
| 2026-04-22 14:21 | 6.06914 | 102.15372 | 2056 ft | 216 kts | 324° |
| 2026-04-22 14:21 | 6.08131 | 102.14427 | 2050 ft | 218 kts | 324° |
| 2026-04-22 14:22 | 6.10869 | 102.13451 | 2041 ft | 211 kts | 11° |
| 2026-04-22 14:22 | 6.12312 | 102.13715 | 2045 ft | 211 kts | 13° |
| 2026-04-22 14:22 | 6.15206 | 102.14253 | 2042 ft | 211 kts | 12° |
| 2026-04-22 14:23 | 6.16673 | 102.14511 | 2041 ft | 210 kts | 14° |
| 2026-04-22 14:23 | 6.17925 | 102.15112 | 2014 ft | 196 kts | 48° |
| 2026-04-22 14:23 | 6.18523 | 102.16267 | 2119 ft | 177 kts | 77° |
| 2026-04-22 14:23 | 6.18597 | 102.17439 | 2092 ft | 157 kts | 91° |
| 2026-04-22 14:24 | 6.18498 | 102.18476 | 1882 ft | 142 kts | 95° |
| 2026-04-22 14:24 | 6.18359 | 102.19437 | 1705 ft | 138 kts | 97° |
| 2026-04-22 14:24 | 6.18201 | 102.20390 | 1544 ft | 137 kts | 98° |
| 2026-04-22 14:24 | 6.18039 | 102.21339 | 1378 ft | 137 kts | 98° |
| 2026-04-22 14:25 | 6.17878 | 102.22279 | 1213 ft | 136 kts | 98° |
| 2026-04-22 14:25 | 6.17720 | 102.23209 | 1042 ft | 136 kts | 98° |
| 2026-04-22 14:25 | 6.17559 | 102.24158 | 865 ft | 135 kts | 99° |
| 2026-04-22 14:25 | 6.17403 | 102.25078 | 690 ft | 135 kts | 100° |
| 2026-04-22 14:26 | 6.17243 | 102.26020 | 511 ft | 135 kts | 99° |
| 2026-04-22 14:26 | 6.17087 | 102.26936 | 342 ft | 134 kts | 99° |
| 2026-04-22 14:26 | 6.16934 | 102.27853 | 179 ft | 132 kts | 99° |
| 2026-04-22 14:26 | 6.16774 | 102.28754 | 48 ft | 127 kts | 101° |
| 2026-04-22 14:27 | 6.16637 | 102.29536 | 27 ft | 95 kts | 95° |
| 2026-04-22 14:27 | 6.16563 | 102.30028 | 28 ft | 45 kts | 99° |
| 2026-04-22 14:27 | 6.16530 | 102.30217 | 27 ft | 14 kts | 99° |
| 2026-04-22 14:27 | 6.16567 | 102.30271 | 27 ft | 9 kts | 19° |
| 2026-04-22 14:28 | 6.16634 | 102.30283 | 27 ft | 10 kts | 9° |
| 2026-04-22 14:28 | 6.16682 | 102.30241 | 27 ft | 10 kts | 279° |
| 2026-04-22 14:28 | 6.16694 | 102.30161 | 27 ft | 12 kts | 279° |
| 2026-04-22 14:28 | 6.16711 | 102.30074 | 27 ft | 13 kts | 280° |
| 2026-04-22 14:29 | 6.16728 | 102.29979 | 27 ft | 14 kts | 280° |
| 2026-04-22 14:29 | 6.16746 | 102.29878 | 27 ft | 15 kts | 280° |
| 2026-04-22 14:29 | 6.16715 | 102.29833 | 27 ft | 8 kts | 196° |
| 2026-04-22 14:29 | 6.16664 | 102.29823 | 27 ft | 7 kts | 190° |
| 2026-04-22 14:30 | 6.16615 | 102.29808 | 27 ft | 5 kts | 259° |
| 2026-04-22 14:30 | 6.16624 | 102.29756 | 27 ft | 8 kts | 267° |
| 2026-04-22 14:30 | 6.16622 | 102.29686 | 27 ft | 12 kts | 275° |
| 2026-04-22 14:30 | 6.16639 | 102.29582 | 27 ft | 17 kts | 279° |
| 2026-04-22 14:31 | 6.16661 | 102.29450 | 27 ft | 21 kts | 280° |
| 2026-04-22 14:31 | 6.16690 | 102.29291 | 27 ft | 24 kts | 280° |
| 2026-04-22 14:31 | 6.16714 | 102.29143 | 27 ft | 14 kts | 280° |
| 2026-04-22 14:31 | 6.16732 | 102.29041 | 27 ft | 15 kts | 280° |
| 2026-04-22 14:32 | 6.16792 | 102.28993 | 27 ft | 12 kts | 25° |
| 2026-04-22 14:32 | 6.16844 | 102.29049 | 27 ft | 9 kts | 53° |
| 2026-04-22 14:32 | 6.16887 | 102.29107 | 27 ft | 10 kts | 54° |
| 2026-04-22 14:32 | 6.16930 | 102.29134 | 29 ft | 3 kts | 14° |
| 2026-04-22 14:33 | 6.16949 | 102.29137 | 29 ft | 1 kts | 11° |
| 2026-04-22 14:33 | 6.16957 | 102.29139 | 29 ft | 0 kts | 10° |
| 2026-04-22 14:33 | 6.16963 | 102.29140 | 29 ft | 1 kts | 9° |
| 2026-04-22 14:33 | 6.16966 | 102.29140 | 29 ft | 0 kts | 9° |
| 2026-04-22 14:34 | 6.16974 | 102.29141 | 30 ft | 0 kts | 6° |
| 2026-04-22 14:34 | 6.16974 | 102.29142 | 30 ft | 0 kts | 7° |
| 2026-04-22 14:35 | 6.16975 | 102.29142 | 30 ft | 0 kts | 8° |